Time;durP1;ratioP1;P1;durP2;ratioP2;P2;SDS_P1;SDS_P2;PMS_P1;PMS_P2;Temp;Humidity;BMP_temperature;BMP_pressure;BME280_temperature;BME280_humidity;BME280_pressure;Samples;Min_cycle;Max_cycle;Signal;HPM_P1;HPM_P2
2021/06/08 00:01:04;;;;;;;4.57;2.60;;;16.50;99.90;;;;;;6276468;22;20399;-68
2021/06/08 00:03:31;;;;;;;4.57;3.10;;;16.50;99.90;;;;;;6276003;22;20435;-68
2021/06/08 00:05:59;;;;;;;6.70;3.57;;;16.40;99.90;;;;;;6276108;22;20403;-69
2021/06/08 00:08:25;;;;;;;4.70;3.50;;;16.40;99.90;;;;;;6276199;22;20396;-68
2021/06/08 00:10:52;;;;;;;4.87;3.40;;;16.40;99.90;;;;;;6275731;22;20902;-69
2021/06/08 00:13:18;;;;;;;6.57;3.80;;;16.40;99.90;;;;;;6275801;22;20391;-68
2021/06/08 00:15:45;;;;;;;4.70;3.53;;;16.20;99.90;;;;;;6276071;22;20395;-72
2021/06/08 00:18:11;;;;;;;4.40;3.70;;;16.20;99.90;;;;;;6276470;22;20396;-69
2021/06/08 00:20:38;;;;;;;5.60;4.43;;;16.20;99.90;;;;;;6275974;22;20404;-68
2021/06/08 00:23:06;;;;;;;4.60;4.00;;;16.10;99.90;;;;;;6275717;22;20918;-69
2021/06/08 00:25:33;;;;;;;3.70;3.30;;;16.10;99.90;;;;;;6275569;22;20945;-68
2021/06/08 00:28:03;;;;;;;5.33;4.77;;;16.10;99.90;;;;;;6277201;22;20415;-68
2021/06/08 00:30:29;;;;;;;7.70;5.00;;;16.10;99.90;;;;;;6278211;22;20395;-68
2021/06/08 00:32:56;;;;;;;5.80;4.47;;;16.10;99.90;;;;;;6278276;22;20404;-69
2021/06/08 00:35:22;;;;;;;4.63;3.50;;;16.10;99.90;;;;;;6275770;22;20396;-68
2021/06/08 00:37:49;;;;;;;4.90;4.10;;;16.10;99.90;;;;;;6277617;22;20900;-68
2021/06/08 00:40:17;;;;;;;5.63;4.33;;;16.20;99.90;;;;;;6278320;22;20391;-69
2021/06/08 00:42:46;;;;;;;6.80;4.20;;;16.10;99.90;;;;;;6278003;22;20391;-68
2021/06/08 00:45:13;;;;;;;5.80;4.63;;;16.10;99.90;;;;;;6278658;22;20400;-68
2021/06/08 00:47:39;;;;;;;6.53;4.53;;;16.10;99.90;;;;;;6277608;22;20434;-68
2021/06/08 00:50:07;;;;;;;7.07;4.53;;;16.10;99.90;;;;;;6278078;22;20387;-68
2021/06/08 00:52:34;;;;;;;4.37;3.10;;;16.10;99.90;;;;;;6277637;22;20391;-68
2021/06/08 00:55:00;;;;;;;4.00;3.30;;;16.10;99.90;;;;;;6278386;22;20418;-68
2021/06/08 00:57:28;;;;;;;3.80;3.17;;;16.10;99.90;;;;;;6277929;22;20449;-68
2021/06/08 00:59:55;;;;;;;7.23;3.73;;;16.10;99.90;;;;;;6277844;22;20403;-68
2021/06/08 01:02:22;;;;;;;4.60;3.70;;;16.10;99.90;;;;;;6276158;22;20457;-68
2021/06/08 01:04:48;;;;;;;4.13;3.40;;;16.10;99.90;;;;;;6277778;22;20439;-69
2021/06/08 01:07:15;;;;;;;4.03;3.50;;;16.10;99.90;;;;;;6277628;22;20388;-69
2021/06/08 01:09:41;;;;;;;5.63;3.80;;;16.10;99.90;;;;;;6277795;22;20395;-68
2021/06/08 01:12:09;;;;;;;5.63;3.90;;;16.10;99.90;;;;;;6276784;22;20902;-68
2021/06/08 01:14:39;;;;;;;3.90;3.30;;;16.10;99.90;;;;;;6277594;22;20457;-69
2021/06/08 01:17:06;;;;;;;6.07;4.10;;;16.10;99.90;;;;;;6277602;22;20387;-68
2021/06/08 01:19:32;;;;;;;7.33;4.87;;;16.10;99.90;;;;;;6277399;22;20654;-74
2021/06/08 01:22:00;;;;;;;6.43;3.70;;;16.10;99.90;;;;;;6277561;22;20715;-68
2021/06/08 01:24:27;;;;;;;4.93;3.87;;;16.10;99.90;;;;;;6277526;22;20440;-69
2021/06/08 01:26:54;;;;;;;4.50;3.33;;;16.10;99.90;;;;;;6277759;22;20758;-69
2021/06/08 01:29:20;;;;;;;4.33;3.43;;;16.00;99.90;;;;;;6277621;22;20396;-68
2021/06/08 01:31:48;;;;;;;4.97;3.37;;;16.00;99.90;;;;;;6277005;22;20400;-68
2021/06/08 01:34:16;;;;;;;5.47;3.10;;;16.00;99.90;;;;;;6277119;22;20411;-68
2021/06/08 01:36:43;;;;;;;3.60;3.00;;;15.90;99.90;;;;;;6276702;22;20487;-68
2021/06/08 01:39:15;;;;;;;4.77;3.40;;;15.90;99.90;;;;;;6276658;22;20398;-68
2021/06/08 01:41:42;;;;;;;4.40;3.70;;;15.80;99.90;;;;;;6277470;22;20384;-68
2021/06/08 01:44:12;;;;;;;3.20;2.43;;;15.80;99.90;;;;;;6276958;22;20482;-68
2021/06/08 01:46:39;;;;;;;5.43;3.20;;;15.80;99.90;;;;;;6276619;22;20424;-69
2021/06/08 01:49:05;;;;;;;3.50;2.87;;;15.70;99.90;;;;;;6276712;22;20392;-68
2021/06/08 01:51:41;;;;;;;4.57;3.90;;;15.60;99.90;;;;;;6277262;22;20692;-68
2021/06/08 01:57:18;;;;;;;4.80;3.83;;;15.40;99.90;;;;;;6276512;22;20701;-69
2021/06/08 01:59:58;;;;;;;8.00;4.83;;;15.40;99.90;;;;;;6276493;22;20380;-68
2021/06/08 02:02:32;;;;;;;4.30;3.43;;;15.30;99.90;;;;;;6276561;22;20388;-68
2021/06/08 02:05:18;;;;;;;5.30;4.77;;;15.30;99.90;;;;;;6276786;22;20434;-68
2021/06/08 02:07:58;;;;;;;7.70;4.93;;;15.30;99.90;;;;;;6276684;22;20376;-68
2021/06/08 02:10:41;;;;;;;5.23;4.53;;;15.30;99.90;;;;;;6277305;22;20391;-68
2021/06/08 02:13:13;;;;;;;5.27;4.77;;;15.30;99.90;;;;;;6276311;22;20862;-72
2021/06/08 02:15:54;;;;;;;4.60;3.73;;;15.30;99.90;;;;;;6277284;22;20391;-69
2021/06/08 02:18:21;;;;;;;5.13;4.40;;;15.30;99.90;;;;;;6276392;22;20850;-68
2021/06/08 02:20:50;;;;;;;5.80;4.07;;;15.30;99.90;;;;;;6277045;22;20909;-68
2021/06/08 02:23:22;;;;;;;5.37;3.40;;;15.30;99.90;;;;;;6276470;22;20467;-69
2021/06/08 02:25:52;;;;;;;6.40;3.60;;;15.30;99.90;;;;;;6274155;22;20391;-68
2021/06/08 02:28:24;;;;;;;6.23;4.27;;;15.30;99.90;;;;;;6276296;22;20998;-68
2021/06/08 02:30:54;;;;;;;6.53;4.67;;;15.30;99.90;;;;;;6276800;22;20499;-69
2021/06/08 02:33:21;;;;;;;9.80;4.70;;;15.30;99.90;;;;;;6276194;22;20408;-69
2021/06/08 02:35:48;;;;;;;5.30;4.17;;;15.20;99.90;;;;;;6275899;22;20402;-69
2021/06/08 02:38:16;;;;;;;5.10;4.13;;;15.20;99.90;;;;;;6276527;22;20392;-71
2021/06/08 02:40:44;;;;;;;9.83;4.00;;;15.00;99.90;;;;;;6276964;22;20395;-68
2021/06/08 02:43:13;;;;;;;11.83;5.23;;;15.00;99.90;;;;;;6277492;22;20431;-68
2021/06/08 02:45:41;;;;;;;10.77;4.67;;;14.90;99.90;;;;;;6276641;22;20396;-68
2021/06/08 02:48:09;;;;;;;6.00;4.40;;;14.80;99.90;;;;;;6276287;22;20487;-68
2021/06/08 02:50:36;;;;;;;9.33;4.87;;;14.80;99.90;;;;;;6276483;22;20429;-68
2021/06/08 02:53:03;;;;;;;6.20;5.00;;;14.80;99.90;;;;;;6276068;22;20383;-68
2021/06/08 02:55:31;;;;;;;6.47;5.00;;;14.80;99.90;;;;;;6277137;22;20445;-68
2021/06/08 02:58:00;;;;;;;6.50;5.03;;;14.80;99.90;;;;;;6276258;22;20396;-68
2021/06/08 03:00:29;;;;;;;4.37;3.83;;;14.80;99.90;;;;;;6276378;22;20897;-68
2021/06/08 03:02:58;;;;;;;5.33;4.40;;;14.80;99.90;;;;;;6276048;22;20453;-68
2021/06/08 03:05:28;;;;;;;5.23;3.97;;;14.90;99.90;;;;;;6276273;22;20446;-67
2021/06/08 03:08:04;;;;;;;3.93;3.53;;;14.90;99.90;;;;;;6276441;22;20703;-68
2021/06/08 03:10:34;;;;;;;4.90;4.30;;;14.90;99.90;;;;;;6276996;22;20380;-68
2021/06/08 03:13:02;;;;;;;3.60;3.00;;;15.00;99.90;;;;;;6275963;22;20376;-68
2021/06/08 03:15:34;;;;;;;4.40;3.50;;;15.00;99.90;;;;;;6276754;22;20395;-68
2021/06/08 03:18:02;;;;;;;3.13;2.83;;;15.00;99.90;;;;;;6275981;22;20386;-68
2021/06/08 03:20:35;;;;;;;4.53;3.50;;;15.00;99.90;;;;;;6276191;22;20914;-69
2021/06/08 03:23:04;;;;;;;3.17;2.60;;;15.00;99.90;;;;;;6275978;22;20510;-68
2021/06/08 03:25:33;;;;;;;5.47;3.37;;;15.00;99.90;;;;;;6275970;22;20893;-68
2021/06/08 03:28:00;;;;;;;3.00;2.20;;;15.00;99.90;;;;;;6276418;22;20395;-68
2021/06/08 03:30:30;;;;;;;3.80;2.90;;;15.00;99.90;;;;;;6276498;22;20395;-68
2021/06/08 03:32:57;;;;;;;3.77;3.37;;;15.10;99.90;;;;;;6276054;22;20402;-68
2021/06/08 03:35:27;;;;;;;4.73;3.23;;;15.10;99.90;;;;;;6276158;22;20395;-69
2021/06/08 03:37:55;;;;;;;4.70;3.47;;;15.10;99.90;;;;;;6276568;22;20684;-68
2021/06/08 03:40:23;;;;;;;4.10;3.27;;;15.10;99.90;;;;;;6275819;22;20400;-68
2021/06/08 03:42:51;;;;;;;4.07;2.83;;;15.10;99.90;;;;;;6276446;22;20410;-69
2021/06/08 03:45:18;;;;;;;4.30;3.07;;;15.10;99.90;;;;;;6276109;22;20403;-68
2021/06/08 03:47:47;;;;;;;4.00;3.37;;;15.10;99.90;;;;;;6275786;22;20477;-68
2021/06/08 03:50:15;;;;;;;4.83;3.70;;;15.00;99.90;;;;;;6275723;22;20904;-68
2021/06/08 03:52:42;;;;;;;4.70;3.30;;;14.90;99.90;;;;;;6276424;22;20399;-68
2021/06/08 03:55:11;;;;;;;3.83;3.00;;;15.00;99.90;;;;;;6276115;22;20392;-68
2021/06/08 03:57:43;;;;;;;4.00;3.27;;;15.10;99.90;;;;;;6276267;22;20403;-68
2021/06/08 04:00:11;;;;;;;3.90;2.97;;;15.20;99.90;;;;;;6276429;22;20384;-68
2021/06/08 04:02:39;;;;;;;3.80;3.03;;;15.20;99.90;;;;;;6274781;22;20399;-68
2021/06/08 04:05:09;;;;;;;5.30;3.03;;;15.30;99.90;;;;;;6276141;22;20956;-68
2021/06/08 04:07:38;;;;;;;4.10;2.80;;;15.30;99.90;;;;;;6276107;22;20391;-68
2021/06/08 04:10:07;;;;;;;4.17;3.40;;;15.40;99.90;;;;;;6276309;22;20403;-68
2021/06/08 04:12:34;;;;;;;4.43;3.23;;;15.40;99.90;;;;;;6276618;22;20757;-68
2021/06/08 04:15:01;;;;;;;4.50;3.50;;;15.40;99.90;;;;;;6276991;22;20796;-68
2021/06/08 04:17:27;;;;;;;4.07;3.40;;;15.40;99.90;;;;;;6276032;22;20470;-72
2021/06/08 04:19:54;;;;;;;5.80;3.70;;;15.40;99.90;;;;;;6276586;22;20392;-68
2021/06/08 04:22:29;;;;;;;4.00;3.40;;;15.40;99.90;;;;;;6275509;22;20913;-68
2021/06/08 04:24:56;;;;;;;4.70;3.40;;;15.40;99.90;;;;;;6276221;22;20438;-68
2021/06/08 04:27:24;;;;;;;4.50;3.63;;;15.50;99.90;;;;;;6275838;22;20441;-68
2021/06/08 04:29:51;;;;;;;4.77;3.93;;;15.50;99.90;;;;;;6276382;22;20399;-68
2021/06/08 04:32:18;;;;;;;7.60;5.60;;;15.50;99.90;;;;;;6275546;22;20396;-69
2021/06/08 04:34:49;;;;;;;7.43;4.87;;;15.50;99.90;;;;;;6275916;22;20483;-68
2021/06/08 04:37:15;;;;;;;5.60;4.93;;;15.60;99.90;;;;;;6274928;22;20396;-68
2021/06/08 04:39:43;;;;;;;5.83;4.63;;;15.60;99.90;;;;;;6275855;22;20399;-68
2021/06/08 04:42:11;;;;;;;5.73;3.97;;;15.60;99.90;;;;;;6275839;22;20710;-68
2021/06/08 04:44:41;;;;;;;4.13;3.50;;;15.60;99.90;;;;;;6276026;22;20431;-73
2021/06/08 04:47:07;;;;;;;6.90;3.77;;;15.70;99.90;;;;;;6275864;22;20447;-68
2021/06/08 04:49:34;;;;;;;4.37;3.17;;;15.70;99.90;;;;;;6276060;22;20399;-68
2021/06/08 04:52:00;;;;;;;5.00;4.10;;;15.80;99.90;;;;;;6275917;22;20419;-68
2021/06/08 04:54:27;;;;;;;4.10;3.63;;;15.70;99.90;;;;;;6275961;22;20395;-68
2021/06/08 04:56:55;;;;;;;4.00;3.37;;;15.80;99.90;;;;;;6275750;22;20736;-68
2021/06/08 04:59:28;;;;;;;4.80;3.83;;;15.80;99.90;;;;;;6275512;22;20703;-68
2021/06/08 05:01:55;;;;;;;4.13;3.73;;;15.80;99.90;;;;;;6273411;22;20418;-69
2021/06/08 05:04:26;;;;;;;5.33;3.57;;;15.80;99.90;;;;;;6275491;22;20518;-69
2021/06/08 05:06:55;;;;;;;4.50;3.90;;;15.80;99.90;;;;;;6275103;22;20380;-69
2021/06/08 05:09:25;;;;;;;8.70;5.03;;;15.90;99.90;;;;;;6275216;22;20403;-69
2021/06/08 05:11:55;;;;;;;5.67;4.10;;;15.90;99.90;;;;;;6275124;22;20399;-68
2021/06/08 05:14:24;;;;;;;4.67;4.13;;;16.00;99.90;;;;;;6276062;22;20753;-69
2021/06/08 05:16:52;;;;;;;5.80;3.87;;;16.10;99.90;;;;;;6276715;22;20886;-69
2021/06/08 05:19:20;;;;;;;5.33;3.80;;;16.10;99.90;;;;;;6277308;22;20388;-68
2021/06/08 05:21:47;;;;;;;4.80;3.83;;;16.20;99.90;;;;;;6277283;22;20734;-68
2021/06/08 05:24:16;;;;;;;3.87;3.47;;;16.20;99.90;;;;;;6276985;22;20801;-68
2021/06/08 05:26:44;;;;;;;4.10;3.33;;;16.30;99.90;;;;;;6276915;22;20754;-69
2021/06/08 05:29:16;;;;;;;4.40;3.97;;;16.40;99.90;;;;;;6277256;22;20441;-69
2021/06/08 05:31:43;;;;;;;4.30;3.40;;;16.50;99.90;;;;;;6276607;22;20388;-68
2021/06/08 05:34:11;;;;;;;4.20;3.47;;;16.50;99.90;;;;;;6276491;22;20399;-70
2021/06/08 05:36:38;;;;;;;4.40;3.70;;;16.70;99.90;;;;;;6276969;22;20392;-68
2021/06/08 05:39:07;;;;;;;4.10;3.70;;;16.70;99.90;;;;;;6276748;22;20402;-72
2021/06/08 05:41:34;;;;;;;3.90;3.50;;;16.80;99.90;;;;;;6276165;22;20886;-69
2021/06/08 05:44:00;;;;;;;4.63;3.83;;;16.90;99.60;;;;;;6277078;22;20440;-69
2021/06/08 05:46:32;;;;;;;3.47;3.17;;;17.00;99.70;;;;;;6275905;22;20384;-68
2021/06/08 05:48:59;;;;;;;4.10;3.43;;;17.10;99.70;;;;;;6276898;22;20388;-68
2021/06/08 05:51:29;;;;;;;3.70;2.93;;;17.20;99.60;;;;;;6277051;22;20419;-69
2021/06/08 05:53:56;;;;;;;5.13;3.57;;;17.30;99.80;;;;;;6273894;22;20399;-70
2021/06/08 05:56:24;;;;;;;3.60;3.03;;;17.50;99.70;;;;;;6275538;22;20424;-69
2021/06/08 05:58:54;;;;;;;6.07;4.03;;;17.60;99.50;;;;;;6273137;22;20450;-68
2021/06/08 06:01:21;;;;;;;4.47;3.40;;;17.70;99.20;;;;;;6276755;22;20396;-68
2021/06/08 06:03:50;;;;;;;4.60;3.10;;;17.90;99.30;;;;;;6275874;22;20427;-68
2021/06/08 06:06:17;;;;;;;5.67;3.90;;;18.00;99.20;;;;;;6276792;22;20976;-69
2021/06/08 06:08:46;;;;;;;4.10;3.13;;;18.10;98.50;;;;;;6276285;22;20392;-70
2021/06/08 06:11:14;;;;;;;7.50;3.47;;;18.20;97.40;;;;;;6276565;22;20396;-69
2021/06/08 06:13:47;;;;;;;4.23;3.83;;;18.30;97.10;;;;;;6276622;22;20404;-69
2021/06/08 06:16:17;;;;;;;4.70;3.73;;;18.40;97.10;;;;;;6276990;22;20479;-70
2021/06/08 06:18:44;;;;;;;6.33;4.43;;;18.60;97.10;;;;;;6276578;22;20449;-69
2021/06/08 06:21:12;;;;;;;4.07;3.67;;;18.80;96.80;;;;;;6276749;22;20762;-69
2021/06/08 06:23:42;;;;;;;4.13;3.30;;;18.90;95.90;;;;;;6271445;22;20729;-69
2021/06/08 06:26:09;;;;;;;4.07;3.67;;;19.00;94.60;;;;;;6274849;22;20395;-70
2021/06/08 06:28:38;;;;;;;6.53;3.50;;;19.00;94.40;;;;;;6276860;22;20402;-69
2021/06/08 06:31:07;;;;;;;4.07;3.53;;;19.10;94.50;;;;;;6276833;22;20403;-68
2021/06/08 06:33:34;;;;;;;4.10;3.53;;;19.20;94.50;;;;;;6276351;22;20406;-69
2021/06/08 06:36:03;;;;;;;5.03;3.57;;;19.40;94.70;;;;;;6276403;22;20383;-68
2021/06/08 06:38:32;;;;;;;5.60;3.97;;;19.50;94.30;;;;;;6275857;22;20442;-69
2021/06/08 06:41:06;;;;;;;4.17;3.50;;;19.50;91.90;;;;;;6276329;22;20388;-69
2021/06/08 06:43:35;;;;;;;4.50;4.10;;;19.60;93.20;;;;;;6276511;22;20423;-68
2021/06/08 06:46:02;;;;;;;4.70;3.60;;;19.70;93.50;;;;;;6276461;22;20794;-68
2021/06/08 06:48:29;;;;;;;4.47;4.07;;;20.00;93.70;;;;;;6275232;22;20926;-70
2021/06/08 06:50:56;;;;;;;4.60;3.87;;;20.10;93.60;;;;;;6276947;22;20388;-68
2021/06/08 06:53:22;;;;;;;4.87;3.63;;;20.30;93.00;;;;;;6273709;22;20392;-68
2021/06/08 06:55:52;;;;;;;7.30;3.57;;;20.40;92.20;;;;;;6276219;22;20422;-68
2021/06/08 06:58:20;;;;;;;5.07;3.90;;;20.50;91.60;;;;;;6275821;22;20402;-69
2021/06/08 07:00:47;;;;;;;4.90;4.40;;;20.50;91.10;;;;;;6275706;22;20396;-69
2021/06/08 07:03:16;;;;;;;4.50;4.10;;;20.50;91.20;;;;;;6275915;22;20396;-69
2021/06/08 07:05:45;;;;;;;5.90;5.00;;;20.50;91.30;;;;;;6276170;22;20427;-69
2021/06/08 07:08:21;;;;;;;7.40;5.30;;;20.50;91.60;;;;;;6275731;22;20400;-68
2021/06/08 07:10:47;;;;;;;6.63;4.23;;;20.50;91.30;;;;;;6276166;22;20380;-69
2021/06/08 07:13:16;;;;;;;5.73;4.97;;;20.50;90.90;;;;;;6275860;22;20418;-70
2021/06/08 07:15:43;;;;;;;4.97;4.47;;;20.60;91.40;;;;;;6275977;22;20450;-69
2021/06/08 07:18:12;;;;;;;5.83;4.10;;;20.60;91.40;;;;;;6275729;22;20928;-68
2021/06/08 07:20:42;;;;;;;6.30;4.53;;;20.70;91.70;;;;;;6276068;22;20396;-68
2021/06/08 07:23:09;;;;;;;5.37;4.80;;;20.70;91.60;;;;;;6275637;22;20479;-68
2021/06/08 07:25:38;;;;;;;5.40;4.90;;;20.70;90.10;;;;;;6275195;22;20443;-68
2021/06/08 07:28:06;;;;;;;6.40;5.43;;;20.80;91.00;;;;;;6275852;22;20442;-68
2021/06/08 07:30:37;;;;;;;5.20;4.40;;;20.90;91.40;;;;;;6275613;22;20442;-68
2021/06/08 07:33:09;;;;;;;6.37;4.77;;;21.00;90.60;;;;;;6275925;22;20380;-69
2021/06/08 07:35:39;;;;;;;8.03;5.83;;;20.90;89.20;;;;;;6275604;22;20901;-68
2021/06/08 07:38:23;;;;;;;6.77;6.07;;;20.90;87.80;;;;;;6275495;22;20870;-69
2021/06/08 07:40:57;;;;;;;6.07;5.20;;;21.00;90.30;;;;;;6276085;22;20394;-69
2021/06/08 07:43:28;;;;;;;7.80;5.70;;;21.10;91.60;;;;;;6276006;22;20384;-69
2021/06/08 07:46:00;;;;;;;10.90;5.90;;;21.20;91.80;;;;;;6275551;22;20388;-68
2021/06/08 07:48:28;;;;;;;7.13;6.37;;;21.30;91.80;;;;;;6276024;22;20424;-68
2021/06/08 07:50:56;;;;;;;7.80;5.70;;;21.50;90.70;;;;;;6275759;22;20388;-71
2021/06/08 07:53:26;;;;;;;7.77;6.13;;;21.70;90.20;;;;;;6275603;22;20388;-69
2021/06/08 07:55:52;;;;;;;8.63;7.83;;;21.90;90.20;;;;;;6275056;22;20391;-69
2021/06/08 07:58:23;;;;;;;8.00;7.13;;;22.20;90.20;;;;;;6275690;22;20399;-69
2021/06/08 08:00:50;;;;;;;9.43;8.53;;;22.50;90.20;;;;;;6275939;22;20431;-69
2021/06/08 08:03:26;;;;;;;10.43;9.30;;;22.70;89.80;;;;;;6276395;22;20479;-69
2021/06/08 08:05:53;;;;;;;11.93;10.60;;;22.90;88.30;;;;;;6276065;22;20434;-69
2021/06/08 08:08:21;;;;;;;14.30;9.23;;;23.20;87.50;;;;;;6276344;22;20723;-69
2021/06/08 08:10:49;;;;;;;10.90;9.80;;;23.30;83.60;;;;;;6276240;22;20395;-69
2021/06/08 08:13:21;;;;;;;9.43;8.47;;;23.40;82.30;;;;;;6275744;22;20461;-69
2021/06/08 08:15:49;;;;;;;10.83;9.80;;;23.40;81.80;;;;;;6276387;22;20380;-69
2021/06/08 08:18:16;;;;;;;10.67;9.50;;;23.40;81.90;;;;;;6275831;22;20400;-69
2021/06/08 08:20:48;;;;;;;15.40;9.80;;;23.50;82.70;;;;;;6276359;22;20476;-69
2021/06/08 08:23:14;;;;;;;11.50;10.30;;;23.60;82.40;;;;;;6275732;22;20390;-69
2021/06/08 08:25:42;;;;;;;11.47;10.10;;;23.70;81.70;;;;;;6276303;22;20443;-69
2021/06/08 08:28:09;;;;;;;10.53;9.50;;;23.80;80.10;;;;;;6276348;22;20414;-68
2021/06/08 08:30:36;;;;;;;10.27;9.23;;;23.90;80.70;;;;;;6276669;22;20398;-69
2021/06/08 08:33:04;;;;;;;11.43;10.30;;;23.90;78.40;;;;;;6275625;22;20400;-69
2021/06/08 08:35:31;;;;;;;11.00;9.93;;;24.00;78.70;;;;;;6276318;22;20434;-69
2021/06/08 08:37:59;;;;;;;10.73;9.07;;;24.10;78.50;;;;;;6276303;22;20404;-69
2021/06/08 08:40:26;;;;;;;12.47;9.90;;;24.20;78.30;;;;;;6275988;22;20404;-69
2021/06/08 08:42:53;;;;;;;11.57;9.97;;;24.30;78.20;;;;;;6275926;22;20400;-69
2021/06/08 08:45:20;;;;;;;10.57;9.57;;;24.50;78.50;;;;;;6275890;22;20514;-69
2021/06/08 08:47:47;;;;;;;9.53;8.70;;;24.60;78.20;;;;;;6275685;22;20438;-69
2021/06/08 08:50:15;;;;;;;10.63;9.63;;;24.70;77.70;;;;;;6278498;22;20406;-69
2021/06/08 08:52:45;;;;;;;10.97;9.90;;;24.80;77.60;;;;;;6277357;22;20431;-71
2021/06/08 08:55:14;;;;;;;10.67;9.60;;;24.80;72.50;;;;;;6276663;22;20395;-70
2021/06/08 08:57:45;;;;;;;11.63;10.43;;;25.00;74.90;;;;;;6277608;22;20462;-68
2021/06/08 09:00:13;;;;;;;9.80;8.80;;;25.10;70.80;;;;;;6277695;22;20384;-68
2021/06/08 09:02:40;;;;;;;12.43;11.23;;;25.10;72.30;;;;;;6277174;22;20393;-68
2021/06/08 09:05:08;;;;;;;11.17;10.03;;;25.20;73.10;;;;;;6278268;22;20491;-68
2021/06/08 09:07:34;;;;;;;11.30;10.10;;;25.30;74.00;;;;;;6278191;22;20396;-69
2021/06/08 09:10:02;;;;;;;10.27;9.30;;;25.60;73.50;;;;;;6278090;22;20908;-68
2021/06/08 09:12:30;;;;;;;11.20;10.10;;;25.70;73.20;;;;;;6277368;22;20394;-69
2021/06/08 09:15:02;;;;;;;11.40;9.50;;;25.90;72.60;;;;;;6277578;22;20396;-70
2021/06/08 09:17:30;;;;;;;10.80;9.80;;;26.00;68.90;;;;;;6277925;22;20390;-68
2021/06/08 09:19:56;;;;;;;12.00;10.80;;;26.10;68.10;;;;;;6277557;22;20394;-69
2021/06/08 09:22:23;;;;;;;10.33;9.30;;;26.10;65.20;;;;;;6277960;22;20399;-69
2021/06/08 09:24:54;;;;;;;12.00;10.90;;;26.10;65.90;;;;;;6277321;22;20445;-68
2021/06/08 09:27:28;;;;;;;11.80;10.60;;;26.10;63.80;;;;;;6278157;22;20384;-69
2021/06/08 09:29:55;;;;;;;11.50;10.37;;;26.20;65.30;;;;;;6277660;22;20390;-69
2021/06/08 09:32:24;;;;;;;11.97;10.60;;;26.40;66.40;;;;;;6277633;22;20402;-68
2021/06/08 09:34:52;;;;;;;14.10;10.77;;;26.60;66.40;;;;;;6278260;22;20676;-69
2021/06/08 09:37:33;;;;;;;13.10;11.87;;;26.70;66.10;;;;;;6277927;22;20703;-69
2021/06/08 09:40:00;;;;;;;10.57;9.57;;;26.80;63.50;;;;;;6276968;22;20403;-69
2021/06/08 09:42:28;;;;;;;10.27;9.30;;;26.90;63.10;;;;;;6277468;22;20391;-69
2021/06/08 09:45:12;;;;;;;12.00;10.53;;;27.10;63.90;;;;;;6277953;22;20432;-68
2021/06/08 09:47:38;;;;;;;13.43;11.90;;;27.20;62.10;;;;;;6277274;22;20427;-69
2021/06/08 09:50:30;;;;;;;13.70;11.37;;;27.30;63.00;;;;;;6278031;22;20422;-69
2021/06/08 09:53:19;;;;;;;12.90;11.70;;;27.30;62.50;;;;;;6277339;22;20404;-69
2021/06/08 09:55:57;;;;;;;12.30;11.13;;;27.30;59.40;;;;;;6277284;22;20391;-70
2021/06/08 09:58:25;;;;;;;10.57;9.60;;;27.10;57.10;;;;;;6277831;22;20381;-69
2021/06/08 10:01:20;;;;;;;11.67;9.97;;;27.00;58.60;;;;;;6277162;22;20419;-69
2021/06/08 10:03:50;;;;;;;10.97;9.90;;;27.00;58.40;;;;;;6277705;22;20467;-68
2021/06/08 10:06:18;;;;;;;10.57;9.57;;;27.10;58.90;;;;;;6276972;22;20482;-68
2021/06/08 10:09:09;;;;;;;12.17;10.87;;;27.10;59.10;;;;;;6277130;22;20395;-69
2021/06/08 10:11:37;;;;;;;11.20;9.43;;;27.00;58.30;;;;;;6270427;22;20411;-69
2021/06/08 10:14:11;;;;;;;10.93;9.90;;;26.90;55.70;;;;;;6277665;22;20470;-69
2021/06/08 10:16:40;;;;;;;9.10;8.30;;;27.00;58.60;;;;;;6277341;22;20741;-69
2021/06/08 10:19:10;;;;;;;8.20;7.43;;;27.20;59.70;;;;;;6276763;22;20407;-68
2021/06/08 10:21:39;;;;;;;6.83;6.13;;;27.30;56.00;;;;;;6274545;22;20757;-68
2021/06/08 10:24:08;;;;;;;9.37;8.47;;;27.50;56.60;;;;;;6277176;22;20443;-68
2021/06/08 10:26:37;;;;;;;10.90;9.87;;;27.70;56.70;;;;;;6277424;22;20939;-68
2021/06/08 10:29:07;;;;;;;9.83;8.90;;;27.80;56.10;;;;;;6277042;22;20392;-69
2021/06/08 10:31:36;;;;;;;10.40;9.37;;;27.90;58.20;;;;;;6277600;22;20388;-69
2021/06/08 10:34:06;;;;;;;9.93;8.90;;;28.10;57.90;;;;;;6277018;22;20486;-69
2021/06/08 10:36:37;;;;;;;9.77;8.87;;;28.20;58.20;;;;;;6277556;22;20385;-69
2021/06/08 10:39:05;;;;;;;9.83;8.60;;;28.40;55.90;;;;;;6277254;22;20384;-69
2021/06/08 10:41:34;;;;;;;11.70;10.03;;;28.50;56.00;;;;;;6277516;22;20388;-69
2021/06/08 10:46:51;;;;;;;10.13;8.73;;;28.40;53.50;;;;;;6276994;22;20430;-69
2021/06/08 10:52:20;;;;;;;9.40;8.50;;;28.40;56.00;;;;;;6272688;22;20402;-70
2021/06/08 10:54:48;;;;;;;9.30;8.40;;;28.50;54.30;;;;;;6263021;22;20405;-68
2021/06/08 10:57:16;;;;;;;9.70;8.70;;;28.60;55.40;;;;;;6273372;22;20969;-69
2021/06/08 10:59:44;;;;;;;8.97;8.13;;;28.80;53.60;;;;;;6275312;22;20406;-69
2021/06/08 11:02:12;;;;;;;9.50;8.70;;;28.90;52.60;;;;;;6274805;22;20402;-70
2021/06/08 11:04:51;;;;;;;11.77;9.13;;;28.90;53.20;;;;;;6275435;22;20446;-70
2021/06/08 11:07:51;;;;;;;8.57;7.67;;;28.90;51.40;;;;;;6275663;22;20376;-70
2021/06/08 11:10:57;;;;;;;9.73;8.70;;;28.90;53.50;;;;;;6274959;22;20392;-69
2021/06/08 11:13:55;;;;;;;9.03;8.10;;;28.90;51.80;;;;;;6122345;23;20416;-69
2021/06/08 11:16:33;;;;;;;8.87;8.00;;;28.90;49.10;;;;;;6122558;23;20387;-69
2021/06/08 11:19:04;;;;;;;7.93;7.23;;;29.00;51.60;;;;;;6241433;22;20397;-71
2021/06/08 11:21:34;;;;;;;9.83;8.83;;;29.00;52.40;;;;;;6275353;22;20899;-69
2021/06/08 11:24:01;;;;;;;11.87;10.00;;;29.10;53.40;;;;;;6276451;22;20394;-69
2021/06/08 11:26:50;;;;;;;9.90;9.00;;;29.10;52.10;;;;;;6274410;22;20460;-69
2021/06/08 11:29:48;;;;;;;11.70;10.70;;;29.10;52.90;;;;;;6275880;22;20375;-69
2021/06/08 11:32:48;;;;;;;11.30;10.30;;;29.20;53.30;;;;;;6275815;22;20396;-69
2021/06/08 11:35:20;;;;;;;10.00;8.70;;;29.20;53.30;;;;;;6152625;23;20390;-69
2021/06/08 11:38:01;;;;;;;10.20;9.23;;;29.10;52.40;;;;;;6152316;23;20425;-68
2021/06/08 11:40:56;;;;;;;10.60;9.63;;;29.20;52.20;;;;;;6222468;22;20886;-70
2021/06/08 11:43:43;;;;;;;12.07;10.67;;;29.20;51.50;;;;;;6275518;22;20393;-69
2021/06/08 11:46:12;;;;;;;10.40;9.50;;;29.20;52.10;;;;;;6275350;22;20441;-69
2021/06/08 11:48:40;;;;;;;11.00;10.10;;;29.20;52.00;;;;;;6274790;22;20445;-69
2021/06/08 11:51:35;;;;;;;15.20;11.30;;;29.30;51.50;;;;;;6275909;22;20399;-69
2021/06/08 11:54:08;;;;;;;11.53;9.00;;;29.20;49.70;;;;;;6275853;22;20376;-68
2021/06/08 11:56:56;;;;;;;10.00;8.70;;;29.10;51.20;;;;;;6276057;22;20752;-68
2021/06/08 11:59:26;;;;;;;10.07;9.17;;;29.20;52.20;;;;;;6275789;22;20412;-69
2021/06/08 12:01:56;;;;;;;10.00;9.00;;;29.20;52.30;;;;;;6275752;22;20449;-69
2021/06/08 12:04:28;;;;;;;10.37;9.47;;;29.30;52.70;;;;;;6275426;22;20421;-68
2021/06/08 12:07:16;;;;;;;9.07;8.27;;;29.30;52.50;;;;;;6275231;22;20380;-69
2021/06/08 12:09:46;;;;;;;7.30;6.60;;;29.30;51.10;;;;;;6275369;22;20375;-69
2021/06/08 12:12:15;;;;;;;9.47;8.47;;;29.20;51.60;;;;;;6275899;22;20382;-69
2021/06/08 12:14:50;;;;;;;8.53;7.83;;;29.00;51.20;;;;;;6275119;22;20388;-69
2021/06/08 12:17:18;;;;;;;7.20;6.60;;;28.80;50.80;;;;;;6276615;22;20684;-69
2021/06/08 12:19:44;;;;;;;8.20;7.50;;;28.70;49.30;;;;;;6275457;22;20427;-68
2021/06/08 12:22:25;;;;;;;14.40;8.53;;;28.50;49.90;;;;;;6275801;22;20398;-69
2021/06/08 12:24:58;;;;;;;8.53;7.37;;;28.40;48.90;;;;;;6277104;22;20445;-69
2021/06/08 12:27:40;;;;;;;9.30;8.13;;;28.30;49.80;;;;;;6277760;22;20866;-68
2021/06/08 12:30:13;;;;;;;8.17;7.47;;;28.20;50.90;;;;;;6277469;22;20392;-69
2021/06/08 12:32:41;;;;;;;10.03;7.10;;;28.10;50.80;;;;;;6277558;22;20393;-70
2021/06/08 12:35:21;;;;;;;10.77;8.33;;;28.00;51.60;;;;;;6277134;22;20478;-70
2021/06/08 12:37:48;;;;;;;7.63;6.87;;;28.00;52.00;;;;;;6277578;22;20870;-70
2021/06/08 12:40:20;;;;;;;5.03;4.53;;;28.00;52.10;;;;;;6277638;22;20398;-70
2021/06/08 12:42:47;;;;;;;6.13;5.17;;;28.00;48.20;;;;;;6278242;22;20439;-69
2021/06/08 12:45:20;;;;;;;6.50;5.90;;;27.90;48.30;;;;;;6276670;22;20444;-70
2021/06/08 12:47:53;;;;;;;6.10;5.60;;;27.90;49.40;;;;;;6277411;22;20925;-70
2021/06/08 12:50:29;;;;;;;5.93;5.43;;;27.80;48.70;;;;;;6277910;22;20656;-70
2021/06/08 12:53:03;;;;;;;6.67;5.90;;;27.70;49.20;;;;;;6277685;22;20393;-70
2021/06/08 12:55:32;;;;;;;7.43;6.83;;;27.60;49.40;;;;;;6276730;22;20380;-70
2021/06/08 12:58:02;;;;;;;10.83;7.77;;;27.60;49.70;;;;;;6278009;22;20418;-70
2021/06/08 13:00:32;;;;;;;6.37;5.87;;;27.60;49.90;;;;;;6277247;22;20396;-71
2021/06/08 13:03:01;;;;;;;9.57;6.67;;;27.60;51.40;;;;;;6277249;22;20400;-70
2021/06/08 13:05:29;;;;;;;7.27;6.57;;;27.70;50.90;;;;;;6277127;22;20471;-69
2021/06/08 13:07:57;;;;;;;8.13;6.60;;;27.70;50.70;;;;;;6277540;22;20392;-69